createdAt,value
2022-10-19T00:01:21.547Z,98894.16
2022-10-19T00:03:54.254Z,98900.38
2022-10-19T00:06:26.841Z,98889.78
2022-10-19T00:08:58.383Z,98891.66
2022-10-19T00:11:25.912Z,98887.31
2022-10-19T00:13:59.397Z,98880.34
2022-10-19T00:16:28.144Z,98872.31
2022-10-19T00:19:00.495Z,98858.22
2022-10-19T00:21:27.465Z,98858.22
2022-10-19T00:23:57.591Z,98846.88
2022-10-19T00:26:24.618Z,98848.50
2022-10-19T00:31:43.386Z,98852.16
2022-10-19T00:41:13.941Z,98838.28
2022-10-19T00:43:51.618Z,98830.34
2022-10-19T00:46:18.554Z,98814.53
2022-10-19T00:48:45.662Z,98811.22
2022-10-19T00:51:12.812Z,98805.28
2022-10-19T00:53:39.895Z,98812.50
2022-10-19T00:56:10.040Z,98813.47
2022-10-19T00:58:37.025Z,98823.09
2022-10-19T01:01:05.920Z,98827.53
2022-10-19T01:03:33.557Z,98837.94
2022-10-19T01:06:00.978Z,98838.63
2022-10-19T01:08:28.316Z,98837.69
2022-10-19T01:11:14.443Z,98832.97
2022-10-19T01:13:45.156Z,98829.22
2022-10-19T01:16:32.298Z,98833.75
2022-10-19T01:19:17.881Z,98822.31
2022-10-19T01:21:51.384Z,98823.34
2022-10-19T01:24:40.787Z,98814.66
2022-10-19T01:27:18.653Z,98825.31
2022-10-19T01:29:48.419Z,98829.09
2022-10-19T01:32:28.418Z,98831.88
2022-10-19T01:35:03.974Z,98829.34
2022-10-19T01:37:31.210Z,98820.56
2022-10-19T01:40:07.880Z,98813.38
2022-10-19T01:42:56.230Z,98808.78
2022-10-19T01:45:30.542Z,98787.88
2022-10-19T01:48:18.006Z,98781.06
2022-10-19T01:50:52.030Z,98792.75
2022-10-19T01:53:20.104Z,98784.81
2022-10-19T01:55:49.166Z,98781.41
2022-10-19T01:58:17.909Z,98758.56
2022-10-19T02:00:46.920Z,98751.66
2022-10-19T02:03:15.192Z,98744.16
2022-10-19T02:05:43.895Z,98748.84
2022-10-19T02:08:43.100Z,98753.19
2022-10-19T02:11:10.474Z,98750.38
2022-10-19T02:13:39.137Z,98742.28
2022-10-19T02:16:11.713Z,98747.41
2022-10-19T02:18:41.133Z,98742.88
2022-10-19T02:21:08.060Z,98745.22
2022-10-19T02:23:35.546Z,98746.00
2022-10-19T02:26:02.540Z,98738.00
2022-10-19T02:28:30.236Z,98736.97
2022-10-19T02:30:58.137Z,98741.47
2022-10-19T02:33:25.455Z,98737.16
2022-10-19T02:35:52.416Z,98734.38
2022-10-19T02:38:21.871Z,98725.53
2022-10-19T02:41:01.175Z,98711.53
2022-10-19T02:43:29.160Z,98711.16
2022-10-19T02:46:04.473Z,98716.78
2022-10-19T02:48:33.069Z,98704.59
2022-10-19T02:51:00.003Z,98702.03
2022-10-19T02:53:26.924Z,98702.91
2022-10-19T02:55:53.904Z,98700.13
2022-10-19T02:58:20.902Z,98701.03
2022-10-19T03:00:48.028Z,98700.91
2022-10-19T03:03:15.080Z,98701.03
2022-10-19T03:05:41.977Z,98696.00
2022-10-19T03:08:08.902Z,98691.53
2022-10-19T03:10:35.839Z,98700.13
2022-10-19T03:13:02.815Z,98694.78
2022-10-19T03:15:30.180Z,98693.75
2022-10-19T03:17:57.286Z,98686.59
2022-10-19T03:20:24.394Z,98678.47
2022-10-19T03:25:23.324Z,98685.38
2022-10-19T03:27:53.401Z,98681.75
2022-10-19T03:30:20.463Z,98683.75
2022-10-19T03:32:47.457Z,98678.66
2022-10-19T03:35:14.622Z,98672.34
2022-10-19T03:37:41.580Z,98675.91
2022-10-19T03:40:08.775Z,98668.91
2022-10-19T03:42:35.936Z,98675.06
2022-10-19T03:45:03.236Z,98680.34
2022-10-19T03:47:31.135Z,98666.28
2022-10-19T03:49:58.209Z,98662.78
2022-10-19T03:52:25.279Z,98651.19
2022-10-19T03:54:52.296Z,98645.13
2022-10-19T03:57:19.362Z,98638.22
2022-10-19T03:59:46.415Z,98640.78
2022-10-19T04:02:13.426Z,98638.16
2022-10-19T04:04:40.351Z,98635.97
2022-10-19T04:07:07.343Z,98637.44
2022-10-19T04:09:34.326Z,98633.53
2022-10-19T04:12:01.242Z,98626.84
2022-10-19T04:14:32.526Z,98623.97
2022-10-19T04:17:01.409Z,98621.69
2022-10-19T04:19:28.412Z,98619.50
2022-10-19T04:21:55.449Z,98619.94
2022-10-19T04:24:22.899Z,98613.09
2022-10-19T04:26:51.139Z,98605.91
2022-10-19T04:29:23.717Z,98609.63
2022-10-19T04:31:53.465Z,98599.91
2022-10-19T04:34:20.558Z,98605.53
2022-10-19T04:36:47.587Z,98606.75
2022-10-19T04:39:14.807Z,98613.72
2022-10-19T04:41:41.771Z,98611.50
2022-10-19T04:44:09.713Z,98607.94
2022-10-19T04:46:37.531Z,98602.97
2022-10-19T04:49:06.361Z,98595.91
2022-10-19T04:51:33.368Z,98591.50
2022-10-19T04:54:00.351Z,98592.41
2022-10-19T04:56:28.168Z,98596.00
2022-10-19T04:58:57.087Z,98581.69
2022-10-19T05:01:25.319Z,98587.84
2022-10-19T05:03:59.876Z,98582.63
2022-10-19T05:06:27.397Z,98589.00
2022-10-19T05:08:54.424Z,98587.41
2022-10-19T05:11:21.709Z,98588.94
2022-10-19T05:13:49.144Z,98590.91
2022-10-19T05:16:18.179Z,98595.75
2022-10-19T05:18:49.230Z,98589.97
2022-10-19T05:21:16.720Z,98584.63
2022-10-19T05:23:43.871Z,98589.97
2022-10-19T05:26:16.709Z,98581.19
2022-10-19T05:28:47.314Z,98587.25
2022-10-19T05:31:15.879Z,98579.16
2022-10-19T05:33:43.992Z,98574.97
2022-10-19T05:36:12.399Z,98582.28
2022-10-19T05:38:39.427Z,98585.09
2022-10-19T05:41:06.454Z,98584.00
2022-10-19T05:43:33.406Z,98585.63
2022-10-19T05:46:07.370Z,98582.81
2022-10-19T05:48:35.166Z,98581.69
2022-10-19T05:51:05.301Z,98581.69
2022-10-19T05:53:33.331Z,98570.72
2022-10-19T05:56:00.346Z,98561.16
2022-10-19T05:58:27.363Z,98570.78
2022-10-19T06:00:55.141Z,98571.00
2022-10-19T06:03:22.449Z,98567.25
2022-10-19T06:05:49.702Z,98570.78
2022-10-19T06:08:17.607Z,98564.16
2022-10-19T06:10:45.162Z,98575.13
2022-10-19T06:13:12.445Z,98568.06
2022-10-19T06:15:40.423Z,98575.06
2022-10-19T06:18:08.339Z,98575.81
2022-10-19T06:20:39.345Z,98566.56
2022-10-19T06:23:07.030Z,98566.84
2022-10-19T06:25:34.263Z,98567.41
2022-10-19T06:28:01.813Z,98564.19
2022-10-19T06:30:29.090Z,98567.06
2022-10-19T06:32:56.199Z,98559.31
2022-10-19T06:35:23.228Z,98562.00
2022-10-19T06:37:50.205Z,98562.56
2022-10-19T06:40:17.547Z,98557.94
2022-10-19T06:42:45.305Z,98564.63
2022-10-19T06:45:12.264Z,98564.22
2022-10-19T06:47:39.371Z,98563.97
2022-10-19T06:50:07.020Z,98558.31
2022-10-19T06:52:35.001Z,98555.16
2022-10-19T06:55:02.613Z,98554.88
2022-10-19T06:57:30.132Z,98561.09
2022-10-19T06:59:57.097Z,98561.97
2022-10-19T07:02:24.244Z,98557.06
2022-10-19T07:04:51.269Z,98551.19
2022-10-19T07:07:18.428Z,98553.66
2022-10-19T07:09:45.437Z,98557.66
2022-10-19T07:12:12.408Z,98555.44
2022-10-19T07:14:40.046Z,98550.63
2022-10-19T07:17:07.548Z,98546.47
2022-10-19T07:19:35.037Z,98539.06
2022-10-19T07:22:02.152Z,98548.69
2022-10-19T07:24:29.184Z,98541.72
2022-10-19T07:26:56.178Z,98541.63
2022-10-19T07:29:23.182Z,98538.00
2022-10-19T07:31:50.261Z,98534.56
2022-10-19T07:34:17.410Z,98540.00
2022-10-19T07:36:45.717Z,98541.28
2022-10-19T07:39:13.472Z,98537.00
2022-10-19T07:41:40.520Z,98536.34
2022-10-19T07:44:08.954Z,98533.22
2022-10-19T07:46:38.808Z,98536.13
2022-10-19T07:49:10.105Z,98532.94
2022-10-19T07:51:37.609Z,98534.91
2022-10-19T07:54:05.198Z,98536.72
2022-10-19T07:56:32.403Z,98532.94
2022-10-19T07:59:00.277Z,98540.44
2022-10-19T08:01:31.738Z,98535.09
2022-10-19T08:06:46.654Z,98539.69
2022-10-19T08:09:33.465Z,98537.81
2022-10-19T08:12:01.015Z,98540.44
2022-10-19T08:14:28.048Z,98543.31
2022-10-19T08:16:54.969Z,98539.50
2022-10-19T08:19:22.803Z,98541.28
2022-10-19T08:21:50.057Z,98544.94
2022-10-19T08:24:18.429Z,98545.34
2022-10-19T08:26:45.780Z,98544.44
2022-10-19T08:29:13.888Z,98541.28
2022-10-19T08:31:41.578Z,98537.28
2022-10-19T08:34:08.916Z,98533.47
2022-10-19T08:36:36.197Z,98540.59
2022-10-19T08:39:04.600Z,98535.81
2022-10-19T08:41:35.980Z,98530.97
2022-10-19T08:44:10.742Z,98528.22
2022-10-19T08:46:49.613Z,98523.16
2022-10-19T08:49:19.723Z,98525.72
2022-10-19T08:51:49.648Z,98528.25
2022-10-19T08:54:17.729Z,98524.94
2022-10-19T08:56:51.936Z,98521.75
2022-10-19T08:59:25.349Z,98523.13
2022-10-19T09:01:57.020Z,98520.91
2022-10-19T09:04:35.267Z,98527.22
2022-10-19T09:07:05.345Z,98526.38
2022-10-19T09:09:33.181Z,98534.09
2022-10-19T09:12:06.996Z,98532.38
2022-10-19T09:14:52.885Z,98527.97
2022-10-19T09:17:20.438Z,98533.31
2022-10-19T09:19:47.537Z,98533.31
2022-10-19T09:22:17.486Z,98534.81
2022-10-19T09:24:49.569Z,98544.94
2022-10-19T09:27:20.762Z,98540.28
2022-10-19T09:29:51.986Z,98548.53
2022-10-19T09:32:21.698Z,98541.88
2022-10-19T09:34:53.534Z,98538.13
2022-10-19T09:37:25.893Z,98538.53
2022-10-19T09:39:55.500Z,98537.25
2022-10-19T09:42:30.559Z,98535.75
2022-10-19T09:44:59.261Z,98542.81
2022-10-19T09:47:34.407Z,98543.38
2022-10-19T09:50:20.394Z,98550.31
2022-10-19T09:52:48.474Z,98546.22
2022-10-19T09:55:20.443Z,98543.44
2022-10-19T09:57:48.556Z,98550.72
2022-10-19T10:00:18.858Z,98543.88
2022-10-19T10:02:53.222Z,98537.75
2022-10-19T10:05:20.712Z,98536.38
2022-10-19T10:07:48.192Z,98527.19
2022-10-19T10:10:18.272Z,98534.91
2022-10-19T10:12:46.465Z,98540.75
2022-10-19T10:15:18.101Z,98547.28
2022-10-19T10:17:47.516Z,98457.19
2022-10-19T10:20:17.311Z,98537.13
2022-10-19T10:22:51.818Z,98549.47
2022-10-19T10:25:18.829Z,98547.94
2022-10-19T10:27:54.820Z,98549.31
2022-10-19T10:30:21.800Z,98554.81
2022-10-19T10:32:54.420Z,98547.56
2022-10-19T10:35:35.053Z,98555.13
2022-10-19T10:38:10.154Z,98549.50
2022-10-19T10:40:38.834Z,98541.03
2022-10-19T10:43:14.102Z,98547.69
2022-10-19T10:45:42.758Z,98547.75
2022-10-19T10:48:18.774Z,98553.56
2022-10-19T10:50:45.894Z,98555.84
2022-10-19T10:53:31.608Z,98559.03
2022-10-19T10:55:58.902Z,98559.88
2022-10-19T10:58:36.137Z,98564.31
2022-10-19T11:01:07.776Z,98552.78
2022-10-19T11:03:36.118Z,98539.09
2022-10-19T11:06:03.218Z,98543.16
2022-10-19T11:08:45.083Z,98541.81
2022-10-19T11:11:16.014Z,98540.63
2022-10-19T11:13:49.348Z,98535.59
2022-10-19T11:16:17.979Z,98534.75
2022-10-19T11:18:45.296Z,98534.81
2022-10-19T11:21:27.027Z,98530.84
2022-10-19T11:23:56.760Z,98532.31
2022-10-19T11:26:41.723Z,98534.59
2022-10-19T11:29:08.726Z,98531.03
2022-10-19T11:31:51.158Z,98528.91
2022-10-19T11:34:27.248Z,98519.47
2022-10-19T11:36:58.632Z,98522.69
2022-10-19T11:39:30.847Z,98523.75
2022-10-19T11:42:13.060Z,98512.06
2022-10-19T11:45:02.999Z,98508.44
2022-10-19T11:47:43.746Z,98505.63
2022-10-19T11:50:27.164Z,98507.94
2022-10-19T11:53:02.845Z,98506.66
2022-10-19T11:55:32.637Z,98507.00
2022-10-19T11:58:06.762Z,98513.94
2022-10-19T12:00:45.893Z,98527.72
2022-10-19T12:03:12.817Z,98528.00
2022-10-19T12:05:58.211Z,98534.13
2022-10-19T12:08:34.459Z,98532.16
2022-10-19T12:11:01.442Z,98530.16
2022-10-19T12:13:31.751Z,98538.41
2022-10-19T12:15:59.298Z,98536.09
2022-10-19T12:18:29.131Z,98533.16
2022-10-19T12:20:58.890Z,98534.44
2022-10-19T12:23:26.280Z,98540.16
2022-10-19T12:25:55.791Z,98541.69
2022-10-19T12:28:25.346Z,98544.16
2022-10-19T12:30:53.075Z,98547.91
2022-10-19T12:33:26.431Z,98543.28
2022-10-19T12:35:57.829Z,98545.91
2022-10-19T12:38:46.138Z,98542.91
2022-10-19T12:41:29.584Z,98537.56
2022-10-19T12:44:20.405Z,98540.88
2022-10-19T12:46:51.769Z,98544.81
2022-10-19T12:49:26.693Z,98544.22
2022-10-19T12:51:54.908Z,98544.28
2022-10-19T12:54:23.907Z,98541.88
2022-10-19T12:56:53.662Z,98539.94
2022-10-19T12:59:26.506Z,98536.81
2022-10-19T13:01:54.490Z,98540.41
2022-10-19T13:04:23.216Z,98536.22
2022-10-19T13:06:56.113Z,98545.41
2022-10-19T13:09:35.220Z,98548.31
2022-10-19T13:12:21.632Z,98555.44
2022-10-19T13:15:01.133Z,98561.84
2022-10-19T13:17:34.366Z,98563.97
2022-10-19T13:20:13.525Z,98556.88
2022-10-19T13:22:41.186Z,98559.94
2022-10-19T13:25:17.338Z,98556.59
2022-10-19T13:27:45.506Z,98564.69
2022-10-19T13:30:30.857Z,98561.09
2022-10-19T13:32:57.902Z,98569.28
2022-10-19T13:35:32.015Z,98567.53
2022-10-19T13:38:11.277Z,98561.06
2022-10-19T13:40:40.701Z,98572.13
2022-10-19T13:43:18.211Z,98569.88
2022-10-19T13:45:54.167Z,98576.38
2022-10-19T13:48:36.310Z,98577.69
2022-10-19T13:51:15.469Z,98575.72
2022-10-19T13:54:02.606Z,98578.09
2022-10-19T13:56:40.973Z,98579.13
2022-10-19T13:59:14.201Z,98577.91
2022-10-19T14:01:41.258Z,98571.94
2022-10-19T14:04:08.515Z,98568.03
2022-10-19T14:06:44.663Z,98572.34
2022-10-19T14:09:39.463Z,98565.66
2022-10-19T14:12:08.370Z,98570.78
2022-10-19T14:19:50.680Z,98582.25
2022-10-19T14:22:26.118Z,98582.38
2022-10-19T14:25:00.267Z,98589.88
2022-10-19T14:27:27.402Z,98584.34
2022-10-19T14:29:54.465Z,98591.09
2022-10-19T14:32:23.913Z,98583.78
2022-10-19T14:34:51.155Z,98589.78
2022-10-19T14:37:27.592Z,98596.63
2022-10-19T14:40:03.215Z,98590.94
2022-10-19T14:42:42.043Z,98588.03
2022-10-19T14:45:18.476Z,98595.94
2022-10-19T14:47:56.241Z,98600.22
2022-10-19T14:50:28.336Z,98594.00
2022-10-19T14:53:07.649Z,98599.78
2022-10-19T14:55:39.488Z,98603.94
2022-10-19T14:58:10.573Z,98608.34
2022-10-19T15:00:37.691Z,98606.06
2022-10-19T15:03:06.668Z,98608.84
2022-10-19T15:05:35.730Z,98606.06
2022-10-19T15:08:08.335Z,98611.78
2022-10-19T15:10:45.893Z,98607.19
2022-10-19T15:13:24.249Z,98615.31
2022-10-19T15:15:52.474Z,98618.13
2022-10-19T15:18:43.884Z,98622.16
2022-10-19T15:21:13.624Z,98618.75
2022-10-19T15:23:45.271Z,98632.59
2022-10-19T15:26:32.413Z,98632.47
2022-10-19T15:29:19.903Z,98628.94
2022-10-19T15:31:46.890Z,98637.81
2022-10-19T15:34:25.870Z,98639.84
2022-10-19T15:37:00.693Z,98638.63
2022-10-19T15:39:38.757Z,98642.97
2022-10-19T15:42:26.462Z,98643.56
2022-10-19T15:44:53.420Z,98645.41
2022-10-19T15:47:22.406Z,98648.03
2022-10-19T15:49:53.668Z,98651.84
2022-10-19T15:52:22.034Z,98655.56
2022-10-19T15:54:50.276Z,98655.41
2022-10-19T15:57:36.615Z,98665.88
2022-10-19T16:00:06.965Z,98664.78
2022-10-19T16:02:33.914Z,98662.50
2022-10-19T16:05:00.911Z,98667.78
2022-10-19T16:07:31.909Z,98670.31
2022-10-19T16:09:59.248Z,98665.06
2022-10-19T16:12:26.858Z,98670.88
2022-10-19T16:14:54.267Z,98669.78
2022-10-19T16:17:21.701Z,98665.63
2022-10-19T16:19:48.710Z,98670.94
2022-10-19T16:22:16.341Z,98671.03
2022-10-19T16:24:43.961Z,98678.22
2022-10-19T16:27:15.281Z,98673.81
2022-10-19T16:29:43.868Z,98676.72
2022-10-19T16:32:10.777Z,98684.31
2022-10-19T16:34:38.165Z,98691.09
2022-10-19T16:37:06.947Z,98684.53
2022-10-19T16:39:34.893Z,98689.31
2022-10-19T16:42:01.880Z,98692.09
2022-10-19T16:44:28.822Z,98697.19
2022-10-19T16:46:59.233Z,98700.47
2022-10-19T16:49:26.802Z,98701.31
2022-10-19T16:51:56.504Z,98705.94
2022-10-19T16:54:26.598Z,98701.53
2022-10-19T16:56:53.555Z,98703.31
2022-10-19T16:59:20.474Z,98705.16
2022-10-19T17:01:47.761Z,98703.03
2022-10-19T17:04:16.101Z,98701.81
2022-10-19T17:06:43.912Z,98706.09
2022-10-19T17:11:58.044Z,98695.69
2022-10-19T17:14:24.967Z,98696.25
2022-10-19T17:16:51.931Z,98705.44
2022-10-19T17:19:18.894Z,98705.25
2022-10-19T17:21:49.611Z,98705.09
2022-10-19T17:24:22.310Z,98706.78
2022-10-19T17:26:53.329Z,98700.69
2022-10-19T17:29:20.585Z,98704.88
2022-10-19T17:31:49.486Z,98713.69
2022-10-19T17:34:18.579Z,98704.09
2022-10-19T17:36:50.586Z,98715.47
2022-10-19T17:39:19.691Z,98718.03
2022-10-19T17:41:48.610Z,98721.78
2022-10-19T17:44:20.986Z,98716.47
2022-10-19T17:46:54.993Z,98718.94
2022-10-19T17:49:22.013Z,98728.28
2022-10-19T17:51:48.925Z,98725.00
2022-10-19T17:54:20.957Z,98731.06
2022-10-19T17:56:50.886Z,98724.94
2022-10-19T17:59:30.039Z,98732.06
2022-10-19T18:01:57.500Z,98744.22
2022-10-19T18:04:24.508Z,98633.25
2022-10-19T18:06:51.472Z,98737.22
2022-10-19T18:09:18.534Z,98738.16
2022-10-19T18:11:48.401Z,98740.66
2022-10-19T18:14:16.678Z,98745.75
2022-10-19T18:16:45.778Z,98744.22
2022-10-19T18:19:16.484Z,98739.84
2022-10-19T18:21:45.144Z,98747.63
2022-10-19T18:24:15.367Z,98748.34
2022-10-19T18:26:48.006Z,98754.38
2022-10-19T18:29:19.177Z,98751.59
2022-10-19T18:31:51.575Z,98754.50
2022-10-19T18:34:23.578Z,98758.16
2022-10-19T18:36:57.410Z,98760.00
2022-10-19T18:39:35.385Z,98761.91
2022-10-19T18:42:04.924Z,98763.28
2022-10-19T18:44:33.808Z,98763.19
2022-10-19T18:47:02.766Z,98764.97
2022-10-19T18:49:29.831Z,98761.56
2022-10-19T18:51:56.841Z,98757.44
2022-10-19T18:54:28.219Z,98768.59
2022-10-19T18:56:55.920Z,98760.00
2022-10-19T18:59:28.859Z,98764.41
2022-10-19T19:01:59.880Z,98762.63
2022-10-19T19:04:47.990Z,98764.41
2022-10-19T19:07:23.876Z,98766.31
2022-10-19T19:09:51.718Z,98756.88
2022-10-19T19:12:19.775Z,98763.88
2022-10-19T19:14:47.736Z,98761.53
2022-10-19T19:17:20.226Z,98758.72
2022-10-19T19:19:47.319Z,98758.38
2022-10-19T19:22:18.487Z,98765.59
2022-10-19T19:24:46.920Z,98647.16
2022-10-19T19:27:39.769Z,98763.47
2022-10-19T19:30:07.993Z,98761.69
2022-10-19T19:32:38.887Z,98757.06
2022-10-19T19:35:11.193Z,98762.53
2022-10-19T19:37:42.314Z,98767.13
2022-10-19T19:40:15.625Z,98759.53
2022-10-19T19:42:43.791Z,98767.47
2022-10-19T19:45:11.747Z,98764.78
2022-10-19T19:47:38.729Z,98774.13
2022-10-19T19:50:46.737Z,98770.50
2022-10-19T19:53:17.621Z,98779.09
2022-10-19T19:55:49.575Z,98785.28
2022-10-19T19:58:22.427Z,98796.53
2022-10-19T20:00:54.293Z,98796.34
2022-10-19T20:03:21.330Z,98798.88
2022-10-19T20:05:51.087Z,98804.13
2022-10-19T20:08:21.781Z,98806.53
2022-10-19T20:10:49.809Z,98818.44
2022-10-19T20:13:16.828Z,98821.19
2022-10-19T20:15:43.940Z,98829.97
2022-10-19T20:18:11.678Z,98827.56
2022-10-19T20:20:40.597Z,98827.63
2022-10-19T20:23:07.623Z,98828.97
2022-10-19T20:25:36.749Z,98834.75
2022-10-19T20:28:12.046Z,98831.78
2022-10-19T20:30:45.033Z,98839.97
2022-10-19T20:33:12.104Z,98835.84
2022-10-19T20:35:40.705Z,98841.81
2022-10-19T20:38:08.710Z,98838.38
2022-10-19T20:40:40.890Z,98839.25
2022-10-19T20:43:07.880Z,98839.81
2022-10-19T20:45:40.202Z,98849.50
2022-10-19T20:48:10.612Z,98845.28
2022-10-19T20:50:40.391Z,98843.06
2022-10-19T20:53:08.902Z,98846.59
2022-10-19T20:55:38.376Z,98857.69
2022-10-19T20:58:06.434Z,98848.41
2022-10-19T21:00:33.505Z,98852.69
2022-10-19T21:03:00.457Z,98844.78
2022-10-19T21:05:31.715Z,98845.19
2022-10-19T21:07:58.902Z,98850.47
2022-10-19T21:10:31.248Z,98853.94
2022-10-19T21:12:58.615Z,98853.47
2022-10-19T21:15:26.355Z,98846.38
2022-10-19T21:17:55.321Z,98853.22
2022-10-19T21:20:27.177Z,98862.63
2022-10-19T21:22:54.124Z,98851.44
2022-10-19T21:25:21.058Z,98852.97
2022-10-19T21:27:56.975Z,98851.25
2022-10-19T21:30:33.121Z,98851.25
2022-10-19T21:33:05.600Z,98855.53
2022-10-19T21:35:38.689Z,98858.50
2022-10-19T21:38:08.654Z,98852.56
2022-10-19T21:40:41.947Z,98850.97
2022-10-19T21:43:15.848Z,98858.69
2022-10-19T21:45:45.300Z,98863.88
2022-10-19T21:48:12.226Z,98863.94
2022-10-19T21:50:43.785Z,98861.44
2022-10-19T21:53:10.786Z,98867.41
2022-10-19T21:55:38.176Z,98874.28
2022-10-19T21:58:07.511Z,98868.88
2022-10-19T22:00:38.750Z,98874.19
2022-10-19T22:03:07.836Z,98875.00
2022-10-19T22:05:35.685Z,98879.22
2022-10-19T22:08:03.747Z,98882.56
2022-10-19T22:10:30.710Z,98879.94
2022-10-19T22:12:57.857Z,98885.19
2022-10-19T22:15:25.633Z,98897.53
2022-10-19T22:17:53.658Z,98893.34
2022-10-19T22:20:26.306Z,98902.03
2022-10-19T22:22:54.931Z,98897.75
2022-10-19T22:25:22.226Z,98899.47
2022-10-19T22:27:49.390Z,98903.59
2022-10-19T22:30:16.349Z,98901.03
2022-10-19T22:32:43.957Z,98907.81
2022-10-19T22:35:10.946Z,98914.13
2022-10-19T22:37:38.028Z,98909.03
2022-10-19T22:40:05.134Z,98909.03
2022-10-19T22:42:38.085Z,98914.97
2022-10-19T22:45:05.798Z,98911.34
2022-10-19T22:47:32.821Z,98916.47
2022-10-19T22:49:59.825Z,98907.81
2022-10-19T22:52:26.783Z,98907.94
2022-10-19T22:54:53.860Z,98914.13
2022-10-19T22:57:20.887Z,98921.22
2022-10-19T22:59:47.876Z,98919.25
2022-10-19T23:02:14.863Z,98920.03
2022-10-19T23:04:41.841Z,98922.94
2022-10-19T23:07:08.901Z,98924.13
2022-10-19T23:09:35.927Z,98927.72
2022-10-19T23:12:02.884Z,98935.81
2022-10-19T23:14:29.799Z,98927.91
2022-10-19T23:16:56.816Z,98938.38
2022-10-19T23:19:23.786Z,98936.34
2022-10-19T23:21:50.717Z,98927.00
2022-10-19T23:24:17.711Z,98928.59
2022-10-19T23:26:45.264Z,98941.03
2022-10-19T23:29:12.174Z,98942.06
2022-10-19T23:31:39.254Z,98945.81
2022-10-19T23:34:06.242Z,98952.88
2022-10-19T23:36:33.465Z,98950.97
2022-10-19T23:39:00.431Z,98958.84
2022-10-19T23:41:27.591Z,98957.91
2022-10-19T23:43:54.485Z,98964.91
2022-10-19T23:46:21.397Z,98961.47
2022-10-19T23:48:48.265Z,98966.75
2022-10-19T23:51:16.644Z,98969.25
2022-10-19T23:53:44.902Z,98967.13
2022-10-19T23:56:19.457Z,98963.59
2022-10-19T23:58:46.552Z,98966.28
